Time;durP1;ratioP1;P1;durP2;ratioP2;P2;SDS_P1;SDS_P2;PMS_P1;PMS_P2;Temp;Humidity;BMP_temperature;BMP_pressure;BME280_temperature;BME280_humidity;BME280_pressure;Samples;Min_cycle;Max_cycle;Signal;HPM_P1;HPM_P2
2021/05/08 00:00:39;;;;;;;12.80;7.47;;;8.50;99.90;;;;;;5069695;28;20116;-64
2021/05/08 00:03:05;;;;;;;10.65;7.07;;;8.50;99.90;;;;;;5070402;28;20523;-64
2021/05/08 00:05:31;;;;;;;11.05;7.05;;;8.50;99.90;;;;;;5069552;28;20119;-64
2021/05/08 00:07:56;;;;;;;9.70;7.45;;;8.50;99.90;;;;;;5070797;28;20044;-64
2021/05/08 00:10:22;;;;;;;14.73;8.10;;;8.50;99.90;;;;;;5070850;28;20035;-64
2021/05/08 00:12:48;;;;;;;11.38;7.35;;;8.50;99.90;;;;;;5070771;28;20029;-64
2021/05/08 00:15:15;;;;;;;12.88;7.70;;;8.50;99.90;;;;;;5069376;28;20020;-64
2021/05/08 00:17:42;;;;;;;8.57;7.45;;;8.50;99.90;;;;;;5069509;28;20020;-64
2021/05/08 00:20:10;;;;;;;11.35;7.38;;;8.50;99.90;;;;;;5071012;28;20461;-64
2021/05/08 00:22:37;;;;;;;10.35;7.80;;;8.60;99.90;;;;;;5070555;28;20445;-64
2021/05/08 00:25:04;;;;;;;10.32;8.15;;;8.70;99.90;;;;;;5068910;28;20028;-64
2021/05/08 00:27:30;;;;;;;11.95;8.23;;;8.80;99.90;;;;;;5070674;28;20063;-64
2021/05/08 00:29:55;;;;;;;8.65;7.25;;;8.80;99.90;;;;;;5070317;28;20484;-64
2021/05/08 00:32:21;;;;;;;11.00;8.18;;;8.80;99.90;;;;;;5070288;28;20055;-64
2021/05/08 00:34:47;;;;;;;11.68;8.50;;;8.90;99.90;;;;;;5070393;28;20039;-64
2021/05/08 00:37:12;;;;;;;10.48;8.27;;;9.00;99.90;;;;;;5070604;28;20020;-64
2021/05/08 00:39:38;;;;;;;13.35;8.63;;;8.80;99.90;;;;;;5070292;28;20025;-64
2021/05/08 00:42:04;;;;;;;10.30;7.93;;;8.80;99.90;;;;;;5068981;28;20142;-64
2021/05/08 00:44:29;;;;;;;11.80;7.97;;;8.70;99.90;;;;;;5070369;28;20400;-64
2021/05/08 00:46:56;;;;;;;12.13;7.60;;;8.60;99.90;;;;;;5070445;28;20028;-64
2021/05/08 00:49:22;;;;;;;14.68;8.88;;;8.50;99.90;;;;;;5070529;28;20021;-64
2021/05/08 00:51:48;;;;;;;9.32;8.30;;;8.40;99.90;;;;;;5070325;28;20013;-64
2021/05/08 00:54:14;;;;;;;13.93;8.82;;;8.40;99.90;;;;;;5068932;28;20531;-64
2021/05/08 00:56:40;;;;;;;12.93;8.32;;;8.50;99.90;;;;;;5070360;28;20070;-64
2021/05/08 00:59:06;;;;;;;12.63;8.80;;;8.50;99.90;;;;;;5069134;28;20491;-64
2021/05/08 01:01:32;;;;;;;13.27;8.48;;;8.40;99.90;;;;;;5070078;28;20017;-64
2021/05/08 01:03:58;;;;;;;11.38;8.30;;;8.40;99.90;;;;;;5070119;28;20028;-64
2021/05/08 01:06:24;;;;;;;15.95;9.32;;;8.40;99.90;;;;;;5070319;28;20505;-64
2021/05/08 01:08:50;;;;;;;12.90;8.98;;;8.40;99.90;;;;;;5070451;28;20116;-64
2021/05/08 01:11:16;;;;;;;13.07;9.63;;;8.30;99.90;;;;;;5071075;28;20027;-64
2021/05/08 01:13:41;;;;;;;13.73;9.40;;;8.30;99.90;;;;;;5073574;28;20384;-64
2021/05/08 01:16:07;;;;;;;12.43;9.73;;;8.30;99.90;;;;;;5073781;28;20362;-64
2021/05/08 01:18:33;;;;;;;13.88;9.32;;;8.20;99.90;;;;;;5073815;28;20461;-64
2021/05/08 01:21:00;;;;;;;16.92;9.65;;;8.20;99.90;;;;;;5073497;28;20043;-64
2021/05/08 01:23:25;;;;;;;13.20;9.57;;;8.20;99.90;;;;;;5073491;28;20559;-64
2021/05/08 01:25:51;;;;;;;15.25;9.50;;;8.10;99.90;;;;;;5073508;28;20040;-64
2021/05/08 01:28:17;;;;;;;12.98;9.43;;;8.00;99.90;;;;;;5072547;28;20067;-64
2021/05/08 01:30:42;;;;;;;14.50;9.73;;;8.00;99.90;;;;;;5073724;28;20017;-64
2021/05/08 01:33:08;;;;;;;13.40;10.10;;;7.90;99.90;;;;;;5073260;28;20024;-64
2021/05/08 01:35:35;;;;;;;11.85;9.95;;;7.90;99.90;;;;;;5072444;28;20042;-64
2021/05/08 01:38:01;;;;;;;15.18;10.65;;;7.80;99.90;;;;;;5073744;28;20013;-64
2021/05/08 01:40:38;;;;;;;15.98;10.18;;;7.80;99.90;;;;;;5073396;28;20029;-64
2021/05/08 01:43:04;;;;;;;13.75;10.10;;;7.80;99.90;;;;;;5073824;28;20043;-64
2021/05/08 01:45:30;;;;;;;14.60;10.85;;;7.80;99.90;;;;;;5073347;28;20024;-64
2021/05/08 01:47:57;;;;;;;17.65;10.48;;;7.90;99.90;;;;;;5072115;28;20078;-64
2021/05/08 01:50:25;;;;;;;13.57;9.55;;;8.00;99.90;;;;;;5071959;28;20035;-64
2021/05/08 01:52:50;;;;;;;16.38;10.50;;;8.00;99.90;;;;;;5073482;28;20591;-64
2021/05/08 01:55:21;;;;;;;14.98;10.20;;;8.00;99.90;;;;;;5071586;28;20141;-64
2021/05/08 01:57:49;;;;;;;14.98;10.80;;;8.00;99.90;;;;;;5073446;28;20476;-64
2021/05/08 02:00:27;;;;;;;18.65;10.55;;;8.00;99.90;;;;;;5072949;28;20025;-64
2021/05/08 02:02:55;;;;;;;12.95;9.85;;;7.90;99.90;;;;;;5071496;28;20051;-64
2021/05/08 02:05:21;;;;;;;14.57;10.38;;;7.90;99.90;;;;;;5072914;28;20420;-64
2021/05/08 02:07:48;;;;;;;15.27;10.77;;;7.80;99.90;;;;;;5073070;28;20031;-64
2021/05/08 02:10:14;;;;;;;14.57;10.73;;;7.90;99.90;;;;;;5072775;28;20021;-64
2021/05/08 02:12:40;;;;;;;15.85;10.63;;;7.90;99.90;;;;;;5071750;28;20542;-64
2021/05/08 02:15:08;;;;;;;14.38;9.95;;;7.70;99.90;;;;;;5072749;28;20025;-64
2021/05/08 02:17:34;;;;;;;16.65;11.25;;;7.70;99.90;;;;;;5071645;28;20046;-64
2021/05/08 02:20:00;;;;;;;14.30;10.75;;;7.70;99.90;;;;;;5072659;28;20032;-64
2021/05/08 02:22:26;;;;;;;15.77;11.00;;;7.80;99.90;;;;;;5071796;28;20458;-64
2021/05/08 02:24:51;;;;;;;16.45;10.95;;;7.80;99.90;;;;;;5072568;28;20020;-64
2021/05/08 02:27:18;;;;;;;16.70;10.88;;;7.80;99.90;;;;;;5072553;28;20060;-64
2021/05/08 02:29:44;;;;;;;12.88;10.73;;;7.90;99.90;;;;;;5071466;28;20027;-64
2021/05/08 02:32:09;;;;;;;15.43;10.55;;;7.80;99.90;;;;;;5072112;28;20016;-64
2021/05/08 02:34:35;;;;;;;15.15;10.95;;;7.80;99.90;;;;;;5072518;28;20025;-64
2021/05/08 02:37:01;;;;;;;15.15;10.82;;;7.80;99.90;;;;;;5072366;28;20032;-64
2021/05/08 02:39:27;;;;;;;18.40;11.73;;;7.90;99.90;;;;;;5072520;28;20101;-64
2021/05/08 02:41:52;;;;;;;16.45;11.82;;;7.90;99.90;;;;;;5070870;28;20027;-64
2021/05/08 02:44:18;;;;;;;15.45;10.98;;;7.90;99.90;;;;;;5072281;28;20095;-64
2021/05/08 02:46:45;;;;;;;14.48;11.32;;;7.90;99.90;;;;;;5071123;28;20358;-64
2021/05/08 02:49:11;;;;;;;14.32;11.05;;;7.90;99.90;;;;;;5072161;28;20527;-64
2021/05/08 02:51:36;;;;;;;14.75;11.30;;;7.90;99.90;;;;;;5072295;28;20033;-64
2021/05/08 02:54:02;;;;;;;16.52;11.93;;;7.80;99.90;;;;;;5072239;28;20028;-64
2021/05/08 02:56:28;;;;;;;14.32;10.93;;;7.80;99.90;;;;;;5070918;28;20056;-64
2021/05/08 02:58:53;;;;;;;15.80;11.68;;;7.80;99.90;;;;;;5070570;28;20353;-64
2021/05/08 03:01:19;;;;;;;18.58;11.50;;;7.80;99.90;;;;;;5070501;28;20123;-64
2021/05/08 03:03:44;;;;;;;14.95;10.68;;;7.90;99.90;;;;;;5070243;28;20028;-64
2021/05/08 03:06:10;;;;;;;12.50;9.95;;;8.00;99.90;;;;;;5070708;28;20028;-64
2021/05/08 03:08:36;;;;;;;22.05;9.30;;;7.90;99.90;;;;;;5071802;28;20111;-64
2021/05/08 03:11:02;;;;;;;15.88;10.30;;;7.90;99.90;;;;;;5070493;28;20032;-64
2021/05/08 03:13:28;;;;;;;15.57;9.20;;;7.90;99.90;;;;;;5070290;28;20530;-64
2021/05/08 03:15:53;;;;;;;13.65;9.57;;;7.90;99.90;;;;;;5071722;28;20020;-64
2021/05/08 03:18:19;;;;;;;11.68;8.55;;;8.00;99.90;;;;;;5071616;28;20024;-64
2021/05/08 03:20:44;;;;;;;13.88;8.43;;;8.00;99.90;;;;;;5070382;28;20082;-64
2021/05/08 03:23:10;;;;;;;11.35;8.80;;;8.00;99.90;;;;;;5071437;28;20020;-64
2021/05/08 03:25:35;;;;;;;11.50;8.30;;;8.10;99.90;;;;;;5071270;28;20040;-64
2021/05/08 03:28:01;;;;;;;12.68;8.73;;;8.00;99.90;;;;;;5071594;28;20025;-64
2021/05/08 03:30:27;;;;;;;12.18;7.63;;;8.10;99.90;;;;;;5071233;28;20349;-64
2021/05/08 03:32:52;;;;;;;13.10;8.23;;;8.10;99.90;;;;;;5069846;28;20047;-64
2021/05/08 03:35:18;;;;;;;11.25;7.97;;;8.10;99.90;;;;;;5070978;28;20020;-64
2021/05/08 03:37:43;;;;;;;11.73;7.40;;;8.10;99.90;;;;;;5070170;28;20350;-64
2021/05/08 03:40:09;;;;;;;10.25;7.78;;;8.20;99.90;;;;;;5071208;28;20024;-64
2021/05/08 03:42:35;;;;;;;12.27;7.90;;;8.20;99.90;;;;;;5069689;28;20043;-64
2021/05/08 03:45:01;;;;;;;10.35;7.80;;;8.20;99.90;;;;;;5071018;28;20033;-64
2021/05/08 03:47:26;;;;;;;11.18;7.10;;;8.20;99.90;;;;;;5071457;28;20393;-64
2021/05/08 03:49:52;;;;;;;11.43;7.78;;;8.20;99.90;;;;;;5071001;28;20069;-64
2021/05/08 03:52:17;;;;;;;12.20;7.75;;;8.10;99.90;;;;;;5071131;28;20471;-64
2021/05/08 03:54:43;;;;;;;10.85;7.45;;;8.20;99.90;;;;;;5071154;28;20028;-64
2021/05/08 03:57:09;;;;;;;10.77;7.30;;;8.20;99.90;;;;;;5071509;28;20118;-64
2021/05/08 03:59:34;;;;;;;11.77;7.53;;;8.20;99.90;;;;;;5070946;28;20477;-64
2021/05/08 04:02:00;;;;;;;12.65;7.60;;;8.20;99.90;;;;;;5069536;28;20056;-64
2021/05/08 04:04:25;;;;;;;10.85;7.22;;;8.20;99.90;;;;;;5070834;28;20104;-64
2021/05/08 04:06:51;;;;;;;11.32;6.97;;;8.20;99.90;;;;;;5071218;28;20032;-64
2021/05/08 04:09:17;;;;;;;11.57;6.93;;;8.20;99.90;;;;;;5069500;28;20044;-64
2021/05/08 04:11:43;;;;;;;12.07;7.25;;;8.20;99.90;;;;;;5071112;28;20492;-64
2021/05/08 04:14:09;;;;;;;10.73;6.25;;;8.20;99.90;;;;;;5070914;28;20056;-64
2021/05/08 04:16:34;;;;;;;11.82;6.85;;;8.30;99.90;;;;;;5070823;28;20048;-64
2021/05/08 04:19:01;;;;;;;10.27;6.38;;;8.30;99.90;;;;;;5070704;28;20017;-64
2021/05/08 04:21:27;;;;;;;10.73;6.35;;;8.30;99.90;;;;;;5070836;28;20032;-64
2021/05/08 04:23:53;;;;;;;10.15;6.38;;;8.40;99.90;;;;;;5069329;28;20029;-64
2021/05/08 04:26:19;;;;;;;8.18;6.07;;;8.40;99.90;;;;;;5071000;28;20940;-64
2021/05/08 04:28:44;;;;;;;10.85;6.60;;;8.40;99.90;;;;;;5070775;28;20025;-64
2021/05/08 04:31:10;;;;;;;13.20;6.03;;;8.40;99.90;;;;;;5070618;28;20373;-64
2021/05/08 04:33:36;;;;;;;8.93;6.40;;;8.40;99.90;;;;;;5070861;28;20029;-64
2021/05/08 04:36:01;;;;;;;11.70;6.50;;;8.40;99.90;;;;;;5070622;28;20154;-64
2021/05/08 04:38:27;;;;;;;10.20;5.97;;;8.40;99.90;;;;;;5069436;28;20024;-64
2021/05/08 04:40:56;;;;;;;11.15;6.63;;;8.50;99.90;;;;;;5069270;28;20020;-64
2021/05/08 04:43:22;;;;;;;12.45;6.50;;;8.60;99.90;;;;;;5069191;28;20020;-64
2021/05/08 04:45:49;;;;;;;8.60;6.50;;;8.60;99.90;;;;;;5071072;28;20530;-64
2021/05/08 04:48:30;;;;;;;9.35;6.47;;;8.60;99.90;;;;;;5072958;28;20028;-65
2021/05/08 04:50:56;;;;;;;11.55;6.35;;;8.70;99.90;;;;;;5074201;28;20025;-64
2021/05/08 04:53:22;;;;;;;10.73;6.32;;;8.70;99.90;;;;;;5074016;28;20047;-64
2021/05/08 04:55:48;;;;;;;14.60;6.97;;;8.70;99.90;;;;;;5074223;28;20020;-64
2021/05/08 04:58:14;;;;;;;11.45;6.80;;;8.70;99.90;;;;;;5074521;28;20021;-64
2021/05/08 05:00:40;;;;;;;10.43;6.57;;;8.70;99.90;;;;;;5072905;28;20025;-64
2021/05/08 05:03:06;;;;;;;12.55;6.45;;;8.80;99.90;;;;;;5073845;28;20086;-64
2021/05/08 05:05:32;;;;;;;10.48;6.60;;;8.90;99.90;;;;;;5072896;28;20028;-64
2021/05/08 05:07:58;;;;;;;11.85;6.20;;;8.90;99.90;;;;;;5074323;28;20392;-64
2021/05/08 05:10:23;;;;;;;13.02;6.90;;;9.00;99.90;;;;;;5073881;28;20028;-64
2021/05/08 05:12:49;;;;;;;11.93;6.90;;;9.10;99.90;;;;;;5074020;28;20434;-64
2021/05/08 05:15:17;;;;;;;12.60;6.20;;;9.10;99.90;;;;;;5072582;28;20028;-64
2021/05/08 05:17:43;;;;;;;12.63;6.63;;;9.20;99.90;;;;;;5072626;28;20054;-64
2021/05/08 05:20:10;;;;;;;10.70;6.72;;;9.20;99.90;;;;;;5073671;28;20660;-64
2021/05/08 05:22:36;;;;;;;10.90;6.40;;;9.20;99.90;;;;;;5073492;28;20025;-64
2021/05/08 05:25:03;;;;;;;12.05;6.90;;;9.20;99.90;;;;;;5073788;28;20534;-64
2021/05/08 05:27:29;;;;;;;10.73;6.22;;;9.30;99.90;;;;;;5072543;28;20404;-64
2021/05/08 05:29:55;;;;;;;12.82;6.05;;;9.30;99.90;;;;;;5072059;28;20388;-64
2021/05/08 05:32:21;;;;;;;11.10;6.68;;;9.30;99.90;;;;;;5073499;28;20099;-64
2021/05/08 05:34:46;;;;;;;8.65;5.85;;;9.40;99.90;;;;;;5073443;28;20676;-64
2021/05/08 05:37:12;;;;;;;12.05;6.22;;;9.40;99.90;;;;;;5073371;28;20032;-64
2021/05/08 05:39:38;;;;;;;9.80;6.15;;;9.50;99.90;;;;;;5073362;28;20044;-64
2021/05/08 05:42:04;;;;;;;9.60;6.13;;;9.50;99.90;;;;;;5073390;28;20050;-64
2021/05/08 05:44:30;;;;;;;9.65;6.10;;;9.60;99.90;;;;;;5073100;28;20028;-64
2021/05/08 05:46:55;;;;;;;12.48;6.55;;;9.60;99.90;;;;;;5072231;28;20051;-64
2021/05/08 05:49:21;;;;;;;9.80;5.68;;;9.60;99.90;;;;;;5072879;28;20031;-64
2021/05/08 05:51:47;;;;;;;9.80;5.55;;;9.80;99.90;;;;;;5073063;28;20056;-64
2021/05/08 05:54:12;;;;;;;11.30;5.65;;;9.80;99.90;;;;;;5072954;28;20458;-64
2021/05/08 05:56:38;;;;;;;9.07;4.82;;;9.90;99.90;;;;;;5071642;28;20440;-64
2021/05/08 05:59:04;;;;;;;10.48;5.38;;;9.90;99.90;;;;;;5072941;28;20021;-64
2021/05/08 06:01:29;;;;;;;9.18;5.00;;;9.90;99.90;;;;;;5072690;28;20028;-64
2021/05/08 06:03:55;;;;;;;8.55;5.15;;;10.00;99.90;;;;;;5072722;28;20024;-64
2021/05/08 06:06:20;;;;;;;11.18;5.20;;;10.00;99.90;;;;;;5071446;28;20025;-64
2021/05/08 06:08:46;;;;;;;13.07;5.70;;;10.00;99.90;;;;;;5071563;28;20492;-64
2021/05/08 06:11:12;;;;;;;9.15;4.88;;;10.00;99.90;;;;;;5072700;28;20024;-64
2021/05/08 06:13:37;;;;;;;9.77;5.00;;;10.00;99.90;;;;;;5072971;28;20469;-64
2021/05/08 06:16:06;;;;;;;11.48;6.15;;;10.00;99.90;;;;;;5071240;28;20025;-64
2021/05/08 06:18:33;;;;;;;8.20;5.28;;;10.10;99.90;;;;;;5071309;28;20361;-64
2021/05/08 06:20:58;;;;;;;9.45;4.88;;;10.10;99.90;;;;;;5072600;28;20510;-64
2021/05/08 06:23:24;;;;;;;9.57;4.50;;;10.20;99.90;;;;;;5071106;28;20147;-64
2021/05/08 06:25:49;;;;;;;11.18;5.10;;;10.20;99.90;;;;;;5072280;28;20086;-64
2021/05/08 06:28:17;;;;;;;8.73;4.47;;;10.20;99.90;;;;;;5072494;28;20487;-65
2021/05/08 06:30:43;;;;;;;8.32;4.57;;;10.30;99.90;;;;;;5070800;28;20377;-64
2021/05/08 06:33:09;;;;;;;9.10;4.90;;;10.20;99.90;;;;;;5072017;28;20025;-64
2021/05/08 06:35:34;;;;;;;7.53;4.40;;;10.20;99.90;;;;;;5072112;28;20074;-63
2021/05/08 06:38:00;;;;;;;9.38;4.93;;;10.20;99.90;;;;;;5072540;28;20025;-64
2021/05/08 06:40:26;;;;;;;9.00;4.40;;;10.10;99.90;;;;;;5072023;28;20540;-64
2021/05/08 06:42:52;;;;;;;10.52;5.05;;;10.00;99.90;;;;;;5072221;28;20017;-64
2021/05/08 06:45:18;;;;;;;7.97;4.53;;;10.10;99.90;;;;;;5072117;28;20027;-65
2021/05/08 06:47:43;;;;;;;8.23;4.38;;;10.10;99.90;;;;;;5072132;28;20025;-65
2021/05/08 06:50:10;;;;;;;7.80;4.18;;;10.30;99.90;;;;;;5071892;28;20122;-64
2021/05/08 06:52:36;;;;;;;8.23;4.13;;;10.30;99.90;;;;;;5071742;28;20029;-65
2021/05/08 06:55:02;;;;;;;7.15;3.92;;;10.20;99.90;;;;;;5071722;28;20757;-65
2021/05/08 06:57:27;;;;;;;6.03;3.70;;;10.30;99.90;;;;;;5070574;28;20074;-64
2021/05/08 06:59:53;;;;;;;5.07;3.28;;;10.40;99.90;;;;;;5071848;28;20465;-64
2021/05/08 07:02:18;;;;;;;9.00;3.90;;;10.50;99.90;;;;;;5071488;28;20028;-64
2021/05/08 07:04:44;;;;;;;9.85;3.97;;;10.50;99.90;;;;;;5071504;28;20016;-64
2021/05/08 07:07:09;;;;;;;7.30;3.75;;;10.50;99.90;;;;;;5071876;28;20074;-64
2021/05/08 07:09:35;;;;;;;9.00;3.92;;;10.50;99.90;;;;;;5071053;28;20033;-64
2021/05/08 07:12:00;;;;;;;14.10;3.80;;;10.50;99.90;;;;;;5070284;28;20538;-64
2021/05/08 07:14:26;;;;;;;7.53;3.78;;;10.50;99.90;;;;;;5071388;28;20021;-64
2021/05/08 07:16:52;;;;;;;5.53;3.40;;;10.60;99.90;;;;;;5071535;28;20016;-64
2021/05/08 07:19:17;;;;;;;8.32;3.80;;;10.50;99.90;;;;;;5071556;28;20055;-64
2021/05/08 07:21:43;;;;;;;8.00;3.95;;;10.40;99.90;;;;;;5070299;28;20078;-64
2021/05/08 07:24:09;;;;;;;6.13;3.88;;;10.30;99.90;;;;;;5071316;28;20237;-64
2021/05/08 07:26:35;;;;;;;8.57;4.18;;;10.30;99.90;;;;;;5070235;28;20485;-64
2021/05/08 07:29:01;;;;;;;6.22;3.92;;;10.20;99.90;;;;;;5069783;28;20032;-64
2021/05/08 07:31:27;;;;;;;5.68;3.45;;;10.20;99.90;;;;;;5070902;28;20016;-64
2021/05/08 07:33:53;;;;;;;6.95;4.07;;;10.30;99.90;;;;;;5071235;28;20350;-64
2021/05/08 07:36:19;;;;;;;7.80;4.05;;;10.30;99.90;;;;;;5071464;28;20101;-64
2021/05/08 07:38:45;;;;;;;6.15;3.65;;;10.40;99.90;;;;;;5070993;28;20028;-63
2021/05/08 07:41:11;;;;;;;5.20;3.40;;;10.50;99.90;;;;;;5071014;28;20024;-63
2021/05/08 07:43:36;;;;;;;6.75;3.60;;;10.60;99.90;;;;;;5069882;28;20574;-63
2021/05/08 07:46:02;;;;;;;4.28;2.88;;;10.60;99.90;;;;;;5071034;28;20108;-63
2021/05/08 07:48:28;;;;;;;6.15;3.70;;;10.60;99.90;;;;;;5069701;28;20078;-63
2021/05/08 07:50:54;;;;;;;5.07;3.47;;;10.70;99.90;;;;;;5070933;28;20029;-63
2021/05/08 07:53:19;;;;;;;5.00;3.35;;;10.70;99.90;;;;;;5069375;28;20031;-65
2021/05/08 07:55:45;;;;;;;5.53;3.67;;;10.70;99.90;;;;;;5070999;28;20031;-64
2021/05/08 07:58:11;;;;;;;4.90;3.25;;;10.70;99.90;;;;;;5070954;28;20024;-64
2021/05/08 08:00:36;;;;;;;9.27;3.70;;;10.80;99.90;;;;;;5070887;28;20376;-64
2021/05/08 08:03:02;;;;;;;5.45;3.47;;;10.80;99.90;;;;;;5070683;28;20060;-64
2021/05/08 08:05:28;;;;;;;6.88;3.63;;;10.70;99.90;;;;;;5069528;28;20374;-64
2021/05/08 08:07:55;;;;;;;5.78;3.20;;;10.60;99.90;;;;;;5070723;28;20028;-64
2021/05/08 08:10:21;;;;;;;4.20;3.35;;;10.60;99.90;;;;;;5069444;28;20039;-64
2021/05/08 08:12:47;;;;;;;7.80;3.83;;;10.60;99.90;;;;;;5070604;28;20473;-64
2021/05/08 08:15:13;;;;;;;5.35;3.40;;;10.70;99.90;;;;;;5069576;28;20427;-64
2021/05/08 08:17:39;;;;;;;7.28;4.28;;;10.60;99.90;;;;;;5069626;28;20468;-64
2021/05/08 08:20:13;;;;;;;4.78;3.65;;;10.60;99.90;;;;;;5069206;28;20027;-64
2021/05/08 08:22:40;;;;;;;7.07;3.80;;;10.60;99.90;;;;;;5074690;28;20032;-64
2021/05/08 08:25:08;;;;;;;5.65;3.45;;;10.50;99.90;;;;;;5074785;28;20063;-65
2021/05/08 08:27:33;;;;;;;5.82;3.72;;;10.50;99.90;;;;;;5073638;28;20400;-64
2021/05/08 08:29:59;;;;;;;8.95;3.83;;;10.60;99.90;;;;;;5074447;28;20085;-63
2021/05/08 08:32:25;;;;;;;5.18;3.75;;;10.60;99.90;;;;;;5073164;28;20029;-63
2021/05/08 08:34:51;;;;;;;5.85;3.78;;;10.50;99.90;;;;;;5074664;28;20025;-63
2021/05/08 08:37:16;;;;;;;8.15;3.92;;;10.60;99.90;;;;;;5074853;28;20029;-63
2021/05/08 08:39:42;;;;;;;8.07;4.32;;;10.60;99.90;;;;;;5074345;28;20434;-63
2021/05/08 08:42:08;;;;;;;7.13;3.97;;;10.50;99.90;;;;;;5074200;28;20040;-63
2021/05/08 08:44:35;;;;;;;6.32;3.60;;;10.50;99.90;;;;;;5074438;28;20103;-63
2021/05/08 08:47:02;;;;;;;5.50;3.42;;;10.50;99.90;;;;;;5074538;28;20097;-63
2021/05/08 08:49:29;;;;;;;8.90;3.67;;;10.50;99.90;;;;;;5074585;28;20500;-63
2021/05/08 08:51:54;;;;;;;6.40;3.92;;;10.60;99.90;;;;;;5073378;28;20093;-64
2021/05/08 08:54:20;;;;;;;7.80;3.85;;;10.70;99.90;;;;;;5074406;28;20067;-64
2021/05/08 08:56:46;;;;;;;9.35;4.18;;;10.80;99.90;;;;;;5074354;28;20535;-64
2021/05/08 08:59:26;;;;;;;5.90;4.30;;;10.80;99.90;;;;;;5074237;28;20024;-64
2021/05/08 09:01:52;;;;;;;4.28;3.83;;;10.90;99.90;;;;;;5073879;28;20414;-64
2021/05/08 09:04:18;;;;;;;4.70;4.03;;;10.80;99.90;;;;;;5074027;28;20027;-64
2021/05/08 09:06:48;;;;;;;5.13;3.88;;;10.70;99.90;;;;;;5072812;28;20033;-64
2021/05/08 09:09:18;;;;;;;7.35;3.97;;;10.60;99.90;;;;;;5073939;28;20029;-64
2021/05/08 09:11:54;;;;;;;5.18;4.00;;;10.40;99.90;;;;;;5069032;28;20081;-64
2021/05/08 09:14:23;;;;;;;5.35;3.80;;;10.30;99.90;;;;;;5054102;28;20020;-64
2021/05/08 09:17:02;;;;;;;6.07;4.03;;;10.30;99.90;;;;;;5054093;28;20017;-64
2021/05/08 09:19:28;;;;;;;7.07;4.50;;;10.10;99.90;;;;;;5054158;28;20033;-65
2021/05/08 09:21:54;;;;;;;5.00;4.20;;;10.00;99.90;;;;;;5053780;28;20040;-65
2021/05/08 09:24:20;;;;;;;7.00;4.30;;;10.00;99.90;;;;;;5053547;28;20017;-63
2021/05/08 09:26:49;;;;;;;7.18;5.05;;;10.00;99.90;;;;;;5053814;28;20363;-65
2021/05/08 09:29:19;;;;;;;6.53;5.20;;;10.00;99.90;;;;;;5053507;28;20230;-66
2021/05/08 09:31:56;;;;;;;7.60;5.53;;;10.10;99.90;;;;;;5051670;28;20029;-66
2021/05/08 09:34:22;;;;;;;7.43;5.70;;;10.10;99.90;;;;;;5054046;28;20550;-66
2021/05/08 09:36:52;;;;;;;8.32;5.53;;;10.00;99.90;;;;;;5052201;28;20381;-66
2021/05/08 09:39:32;;;;;;;10.85;5.82;;;10.00;99.90;;;;;;5052184;28;20498;-66
2021/05/08 09:42:00;;;;;;;11.23;7.78;;;10.00;99.90;;;;;;5052548;28;20033;-65
2021/05/08 09:44:25;;;;;;;12.77;7.75;;;9.90;99.90;;;;;;5052149;28;20025;-66
2021/05/08 09:46:52;;;;;;;14.93;9.15;;;9.90;99.90;;;;;;5053430;28;20031;-65
2021/05/08 09:49:21;;;;;;;16.42;10.57;;;10.00;99.90;;;;;;5053369;28;20032;-65
2021/05/08 09:52:01;;;;;;;16.00;11.50;;;9.90;99.90;;;;;;5053209;28;20516;-65
2021/05/08 09:54:27;;;;;;;12.10;8.43;;;10.00;99.90;;;;;;5052059;28;20017;-64
2021/05/08 09:56:52;;;;;;;9.00;6.85;;;10.10;99.90;;;;;;5051817;28;20358;-65
2021/05/08 09:59:30;;;;;;;9.48;7.70;;;10.10;99.90;;;;;;5052974;28;20312;-64
2021/05/08 10:02:01;;;;;;;9.10;6.93;;;10.10;99.90;;;;;;5052932;28;20025;-65
2021/05/08 10:04:33;;;;;;;11.20;7.80;;;10.30;99.90;;;;;;5053014;28;20025;-65
2021/05/08 10:07:08;;;;;;;13.80;9.88;;;10.30;99.90;;;;;;5053519;28;20048;-65
2021/05/08 10:09:35;;;;;;;10.35;7.18;;;10.40;99.90;;;;;;5052871;28;20036;-64
2021/05/08 10:12:09;;;;;;;12.65;8.57;;;10.40;99.90;;;;;;5052947;28;20027;-64
2021/05/08 10:14:37;;;;;;;8.07;6.15;;;10.40;99.90;;;;;;5051444;28;20021;-65
2021/05/08 10:17:02;;;;;;;8.35;7.18;;;10.50;99.90;;;;;;5052928;28;20015;-65
2021/05/08 10:19:31;;;;;;;9.85;7.20;;;10.50;99.90;;;;;;5051316;28;20021;-65
2021/05/08 10:21:58;;;;;;;9.50;6.57;;;10.60;99.90;;;;;;5052493;28;20474;-65
2021/05/08 10:24:26;;;;;;;9.07;6.38;;;10.70;99.90;;;;;;5051315;28;20075;-65
2021/05/08 10:26:57;;;;;;;7.80;5.65;;;10.60;99.90;;;;;;5052689;28;20045;-65
2021/05/08 10:29:28;;;;;;;8.55;6.03;;;10.70;99.90;;;;;;5052691;28;20047;-65
2021/05/08 10:31:59;;;;;;;6.68;5.25;;;10.60;99.90;;;;;;5052296;28;20025;-65
2021/05/08 10:34:34;;;;;;;7.55;5.05;;;10.60;99.90;;;;;;5051287;28;20486;-64
2021/05/08 10:37:11;;;;;;;6.80;5.32;;;10.70;99.90;;;;;;5051045;28;20017;-64
2021/05/08 10:40:00;;;;;;;7.68;6.20;;;10.70;99.90;;;;;;5051306;28;20055;-65
2021/05/08 10:42:47;;;;;;;8.18;6.15;;;10.70;99.90;;;;;;5050907;28;20028;-65
2021/05/08 10:45:12;;;;;;;7.53;5.88;;;10.80;99.90;;;;;;5051192;28;20354;-65
2021/05/08 10:47:54;;;;;;;9.52;6.55;;;10.80;99.90;;;;;;5050956;28;20104;-65
2021/05/08 10:50:21;;;;;;;7.53;6.72;;;10.80;99.90;;;;;;5051990;28;20028;-65
2021/05/08 10:53:01;;;;;;;8.77;6.15;;;10.90;99.90;;;;;;5050696;28;20067;-65
2021/05/08 10:55:29;;;;;;;8.27;5.97;;;10.90;99.90;;;;;;5050473;28;20036;-65
2021/05/08 10:58:21;;;;;;;9.88;6.00;;;10.90;99.90;;;;;;5052076;28;20055;-66
2021/05/08 11:00:58;;;;;;;6.95;5.57;;;11.00;99.90;;;;;;5052397;28;20392;-66
2021/05/08 11:03:29;;;;;;;6.63;5.07;;;11.10;99.90;;;;;;5050552;28;20029;-65
2021/05/08 11:06:04;;;;;;;9.52;5.63;;;11.20;99.90;;;;;;5051937;28;20032;-66
2021/05/08 11:08:30;;;;;;;8.95;5.60;;;11.30;99.90;;;;;;5051828;28;20429;-66
2021/05/08 11:11:24;;;;;;;5.53;5.03;;;11.40;99.90;;;;;;5051602;28;20048;-66
2021/05/08 11:13:59;;;;;;;7.80;5.10;;;11.50;99.90;;;;;;5051854;28;20104;-66
2021/05/08 11:16:26;;;;;;;5.20;4.18;;;11.70;99.90;;;;;;5051976;28;20023;-66
2021/05/08 11:18:54;;;;;;;6.60;4.97;;;11.90;99.90;;;;;;5051747;28;20052;-66
2021/05/08 11:21:20;;;;;;;7.30;4.28;;;12.00;99.90;;;;;;5050423;28;20362;-65
2021/05/08 11:24:04;;;;;;;5.53;4.22;;;12.10;99.90;;;;;;5051737;28;20028;-66
2021/05/08 11:26:35;;;;;;;4.57;3.75;;;12.30;99.90;;;;;;5051140;28;20074;-64
2021/05/08 11:29:12;;;;;;;6.00;4.35;;;12.50;99.90;;;;;;5050060;28;20039;-64
2021/05/08 11:31:46;;;;;;;7.07;4.32;;;12.70;99.90;;;;;;5050873;28;20037;-64
2021/05/08 11:34:26;;;;;;;6.78;4.80;;;12.90;99.90;;;;;;5051051;28;20053;-64
2021/05/08 11:36:56;;;;;;;5.70;4.38;;;13.00;99.90;;;;;;5051206;28;20028;-65
2021/05/08 11:39:29;;;;;;;6.18;3.85;;;13.10;99.90;;;;;;5051238;28;20024;-65
2021/05/08 11:41:55;;;;;;;;;;;13.30;99.90;;;;;;5051536;28;20400;-64
2021/05/08 11:44:32;;;;;;;7.50;4.93;;;13.40;99.90;;;;;;5049835;28;19912;-66
2021/05/08 11:47:02;;;;;;;6.57;4.82;;;13.50;99.90;;;;;;5051389;28;20021;-65
2021/05/08 11:49:36;;;;;;;5.63;4.45;;;13.70;99.90;;;;;;5050865;28;20027;-64
2021/05/08 11:52:06;;;;;;;8.25;5.90;;;14.00;99.90;;;;;;5051069;28;20025;-64
2021/05/08 11:54:42;;;;;;;8.38;5.60;;;13.90;99.90;;;;;;5050648;28;20393;-65
2021/05/08 11:57:21;;;;;;;9.45;5.60;;;13.90;99.90;;;;;;5051202;28;20029;-65
2021/05/08 11:59:47;;;;;;;8.63;5.32;;;13.90;99.90;;;;;;5049760;28;20029;-65
2021/05/08 12:02:15;;;;;;;13.27;6.60;;;13.70;99.90;;;;;;5050399;28;20125;-65
2021/05/08 12:04:51;;;;;;;8.75;5.65;;;13.60;99.90;;;;;;5049285;28;20409;-65
2021/05/08 12:07:18;;;;;;;8.45;4.53;;;13.50;99.90;;;;;;5050982;28;20102;-65
2021/05/08 12:09:44;;;;;;;8.60;5.35;;;13.40;99.90;;;;;;5049524;28;20048;-66
2021/05/08 12:12:11;;;;;;;6.63;4.55;;;13.30;99.90;;;;;;5049330;28;20021;-66
2021/05/08 12:14:42;;;;;;;8.40;5.20;;;13.30;99.90;;;;;;5049349;28;20386;-65
2021/05/08 12:17:10;;;;;;;8.02;5.13;;;13.40;99.90;;;;;;5050898;28;20032;-66
2021/05/08 12:19:42;;;;;;;6.32;5.32;;;13.50;99.90;;;;;;5049278;28;20163;-66
2021/05/08 12:22:09;;;;;;;8.38;4.32;;;13.50;99.90;;;;;;5050661;28;20021;-66
2021/05/08 12:24:35;;;;;;;6.13;4.78;;;13.60;99.90;;;;;;5050841;28;20090;-66
2021/05/08 12:27:00;;;;;;;6.32;4.97;;;13.80;99.90;;;;;;5050565;28;20053;-66
2021/05/08 12:29:26;;;;;;;7.72;4.68;;;13.80;99.90;;;;;;5050451;28;20032;-66
2021/05/08 12:31:52;;;;;;;10.32;5.00;;;13.90;99.90;;;;;;5050099;28;20107;-65
2021/05/08 12:34:21;;;;;;;6.88;5.45;;;13.90;99.90;;;;;;5049043;28;20114;-65
2021/05/08 12:37:03;;;;;;;9.70;4.43;;;14.00;99.90;;;;;;5050619;28;20469;-65
2021/05/08 12:39:29;;;;;;;8.75;4.70;;;14.00;99.90;;;;;;5050441;28;20025;-65
2021/05/08 12:42:03;;;;;;;5.50;3.42;;;14.10;99.90;;;;;;5050298;28;20078;-65
2021/05/08 12:44:29;;;;;;;5.63;4.32;;;14.20;99.90;;;;;;5050480;28;20029;-65
2021/05/08 12:47:22;;;;;;;5.50;4.70;;;14.10;99.90;;;;;;5049117;28;20186;-65